Time;durP1;ratioP1;P1;durP2;ratioP2;P2;SDS_P1;SDS_P2;PMS_P1;PMS_P2;Temp;Humidity;BMP_temperature;BMP_pressure;BME280_temperature;BME280_humidity;BME280_pressure;Samples;Min_cycle;Max_cycle;Signal;HPM_P1;HPM_P2
2022/05/01 00:01:17;;;;;;;3.65;3.00;;;;;;;;;;5034594;28;20041;-69
2022/05/01 00:03:43;;;;;;;4.68;3.28;;;;;;;;;;5041068;28;20031;-68
2022/05/01 00:06:11;;;;;;;5.55;3.65;;;;;;;;;;5040073;28;20028;-67
2022/05/01 00:08:39;;;;;;;8.77;3.35;;;;;;;;;;5037865;28;20600;-69
2022/05/01 00:11:05;;;;;;;5.43;3.75;;;;;;;;;;5036349;28;20382;-68
2022/05/01 00:13:32;;;;;;;5.43;4.13;;;;;;;;;;5043349;28;20108;-68
2022/05/01 00:15:57;;;;;;;5.07;3.10;;;;;;;;;;5038554;28;20083;-68
2022/05/01 00:18:23;;;;;;;10.75;3.70;;;;;;;;;;5037506;28;20041;-69
2022/05/01 00:20:49;;;;;;;7.50;4.40;;;;;;;;;;5037987;28;20138;-66
2022/05/01 00:23:15;;;;;;;7.72;3.78;;;;;;;;;;5034334;28;20029;-68
2022/05/01 00:25:42;;;;;;;5.78;3.90;;;;;;;;;;5044983;28;20648;-68
2022/05/01 00:28:09;;;;;;;17.08;8.50;;;;;;;;;;5038919;28;20041;-68
2022/05/01 00:30:36;;;;;;;11.05;6.35;;;;;;;;;;5036576;28;20100;-68
2022/05/01 00:38:31;;;;;;;8.70;5.13;;;;;;;;;;5039469;28;20041;-68
2022/05/01 00:40:58;;;;;;;4.28;3.88;;;;;;;;;;5038538;28;20561;-68
2022/05/01 00:43:24;;;;;;;8.32;3.85;;;;;;;;;;5042303;28;20114;-68
2022/05/01 00:45:50;;;;;;;5.30;4.20;;;;;;;;;;5037927;28;20056;-68
2022/05/01 00:48:16;;;;;;;5.82;3.70;;;;;;;;;;5037197;28;20482;-68
2022/05/01 00:50:43;;;;;;;6.43;5.03;;;;;;;;;;5036678;28;20040;-68
2022/05/01 00:53:10;;;;;;;4.43;3.95;;;;;;;;;;5031741;28;20041;-67
2022/05/01 00:55:37;;;;;;;8.70;4.30;;;;;;;;;;5037681;28;20446;-68
2022/05/01 00:58:05;;;;;;;5.60;4.15;;;;;;;;;;5036098;28;20037;-68
2022/05/01 01:00:31;;;;;;;7.40;4.20;;;;;;;;;;5040955;28;20113;-68
2022/05/01 01:02:57;;;;;;;5.22;3.90;;;;;;;;;;5034930;28;20028;-68
2022/05/01 01:05:23;;;;;;;8.68;4.10;;;;;;;;;;5036795;28;20037;-68
2022/05/01 01:07:49;;;;;;;10.52;3.75;;;;;;;;;;5038187;28;20038;-68
2022/05/01 01:10:15;;;;;;;5.22;3.40;;;;;;;;;;5035183;28;20124;-68
2022/05/01 01:12:56;;;;;;;5.95;3.50;;;;;;;;;;5035909;28;20035;-69
2022/05/01 01:15:31;;;;;;;3.80;3.40;;;;;;;;;;5036053;28;20669;-68
2022/05/01 01:17:58;;;;;;;7.20;3.78;;;;;;;;;;5038272;28;20025;-68
2022/05/01 01:20:28;;;;;;;5.63;4.05;;;;;;;;;;5037570;28;20875;-68
2022/05/01 01:22:56;;;;;;;6.18;3.92;;;;;;;;;;5035558;28;20052;-69
2022/05/01 01:25:26;;;;;;;5.00;4.53;;;;;;;;;;5045484;28;20032;-68
2022/05/01 01:27:54;;;;;;;6.55;4.55;;;;;;;;;;5038526;28;20035;-69
2022/05/01 01:33:05;;;;;;;5.40;4.45;;;;;;;;;;5040022;28;20071;-68
2022/05/01 01:35:35;;;;;;;7.30;5.00;;;;;;;;;;5036237;28;20025;-68
2022/05/01 01:38:01;;;;;;;6.18;4.60;;;;;;;;;;5037244;28;20040;-68
2022/05/01 01:40:35;;;;;;;6.03;4.40;;;;;;;;;;5038077;28;20928;-68
2022/05/01 01:43:01;;;;;;;6.57;4.60;;;;;;;;;;5033626;28;20429;-68
2022/05/01 01:45:28;;;;;;;8.65;4.22;;;;;;;;;;5040149;28;20098;-68
2022/05/01 01:48:15;;;;;;;6.13;4.75;;;;;;;;;;5037121;28;20632;-68
2022/05/01 01:50:42;;;;;;;7.72;4.25;;;;;;;;;;5035043;28;20025;-68
2022/05/01 01:53:10;;;;;;;8.13;4.47;;;;;;;;;;5037743;28;20386;-68
2022/05/01 01:55:38;;;;;;;5.18;3.92;;;;;;;;;;5037903;28;20187;-68
2022/05/01 01:58:05;;;;;;;8.55;4.50;;;;;;;;;;5037131;28;20494;-68
2022/05/01 02:00:31;;;;;;;5.28;4.10;;;;;;;;;;5035764;28;20047;-68
2022/05/01 02:03:05;;;;;;;6.00;4.78;;;;;;;;;;5035682;28;20029;-68
2022/05/01 02:05:33;;;;;;;4.40;4.00;;;;;;;;;;5042879;28;20033;-68
2022/05/01 02:07:59;;;;;;;9.43;4.35;;;;;;;;;;5039592;28;20040;-68
2022/05/01 02:10:25;;;;;;;6.35;4.63;;;;;;;;;;5042916;28;20120;-68
2022/05/01 02:12:51;;;;;;;4.93;4.45;;;;;;;;;;5038853;28;20052;-67
2022/05/01 02:15:17;;;;;;;6.55;4.38;;;;;;;;;;5043369;28;20033;-68
2022/05/01 02:17:49;;;;;;;9.70;4.18;;;;;;;;;;5034534;28;20025;-68
2022/05/01 02:20:16;;;;;;;4.60;4.20;;;;;;;;;;5041488;28;20124;-68
2022/05/01 02:22:42;;;;;;;6.22;4.40;;;;;;;;;;5037401;28;20026;-68
2022/05/01 02:25:12;;;;;;;6.93;4.57;;;;;;;;;;5038612;28;20087;-68
2022/05/01 02:27:38;;;;;;;5.72;4.72;;;;;;;;;;5039743;28;20536;-68
2022/05/01 02:30:08;;;;;;;6.65;4.65;;;;;;;;;;5041598;28;20124;-68
2022/05/01 02:32:40;;;;;;;6.07;4.63;;;;;;;;;;5037452;28;20032;-68
2022/05/01 02:35:08;;;;;;;;;;;;;;;;;;5037737;28;20029;-68
2022/05/01 02:37:33;;;;;;;5.68;3.92;;;;;;;;;;5041154;28;19995;-68
2022/05/01 02:39:59;;;;;;;4.95;4.03;;;;;;;;;;5040235;28;20135;-68
2022/05/01 02:42:25;;;;;;;10.63;4.43;;;;;;;;;;5041757;28;20021;-68
2022/05/01 02:44:51;;;;;;;7.63;4.13;;;;;;;;;;5039228;28;20078;-68
2022/05/01 02:47:17;;;;;;;8.70;4.25;;;;;;;;;;5036097;28;20033;-68
2022/05/01 02:49:42;;;;;;;5.95;4.30;;;;;;;;;;5038368;28;20378;-68
2022/05/01 02:52:09;;;;;;;11.15;4.40;;;;;;;;;;5044196;28;20029;-68
2022/05/01 02:54:35;;;;;;;7.45;4.40;;;;;;;;;;5038297;28;20041;-68
2022/05/01 02:57:02;;;;;;;8.93;4.05;;;;;;;;;;5037092;28;20535;-69
2022/05/01 02:59:28;;;;;;;5.22;4.53;;;;;;;;;;5035674;28;20037;-68
2022/05/01 03:01:55;;;;;;;7.35;4.07;;;;;;;;;;5046381;28;20024;-68
2022/05/01 03:04:21;;;;;;;4.63;4.22;;;;;;;;;;5038638;28;20382;-68
2022/05/01 03:06:48;;;;;;;4.85;4.07;;;;;;;;;;5040914;28;20025;-68
2022/05/01 03:09:13;;;;;;;7.13;4.18;;;;;;;;;;5037654;28;20120;-68
2022/05/01 03:11:39;;;;;;;8.50;4.35;;;;;;;;;;5041197;28;20104;-68
2022/05/01 03:14:05;;;;;;;4.95;4.10;;;;;;;;;;5038541;28;20071;-68
2022/05/01 03:16:31;;;;;;;7.00;4.03;;;;;;;;;;5036075;28;20389;-68
2022/05/01 03:24:26;;;;;;;5.15;4.10;;;;;;;;;;5033219;28;20099;-68
2022/05/01 03:26:52;;;;;;;4.78;4.10;;;;;;;;;;5038380;28;20494;-67
2022/05/01 03:29:18;;;;;;;6.28;4.22;;;;;;;;;;5036534;28;20055;-68
2022/05/01 03:31:46;;;;;;;6.63;4.05;;;;;;;;;;5037810;28;20035;-68
2022/05/01 03:34:13;;;;;;;5.57;4.05;;;;;;;;;;5033944;28;20032;-68
2022/05/01 03:36:39;;;;;;;4.70;4.07;;;;;;;;;;5035616;28;20044;-68
2022/05/01 03:39:05;;;;;;;7.50;4.15;;;;;;;;;;5038658;28;20021;-68
2022/05/01 03:41:32;;;;;;;7.85;4.35;;;;;;;;;;5038509;28;20069;-67
2022/05/01 03:43:58;;;;;;;14.82;4.28;;;;;;;;;;5034459;28;20099;-68
2022/05/01 03:46:24;;;;;;;14.02;4.70;;;;;;;;;;5040679;28;20038;-68
2022/05/01 03:48:51;;;;;;;5.13;4.20;;;;;;;;;;5038914;28;20031;-67
2022/05/01 03:51:17;;;;;;;4.40;4.00;;;;;;;;;;5035885;28;20030;-68
2022/05/01 03:53:45;;;;;;;6.43;4.57;;;;;;;;;;5039807;28;20052;-68
2022/05/01 03:56:11;;;;;;;7.85;4.38;;;;;;;;;;5045356;28;20029;-68
2022/05/01 03:58:38;;;;;;;8.40;4.30;;;;;;;;;;5038187;28;20029;-68
2022/05/01 04:01:04;;;;;;;6.68;4.30;;;;;;;;;;5043390;28;20053;-68
2022/05/01 04:03:29;;;;;;;7.47;4.38;;;;;;;;;;5040562;28;20060;-63
2022/05/01 04:05:55;;;;;;;4.72;4.25;;;;;;;;;;5038337;28;20139;-68
2022/05/01 04:08:21;;;;;;;6.95;3.90;;;;;;;;;;5040167;28;20022;-68
2022/05/01 04:10:48;;;;;;;11.13;4.40;;;;;;;;;;5037734;28;20112;-68
2022/05/01 04:13:14;;;;;;;5.53;4.28;;;;;;;;;;5041252;28;20204;-68
2022/05/01 04:15:41;;;;;;;4.32;3.90;;;;;;;;;;5039288;28;20033;-68
2022/05/01 04:18:08;;;;;;;5.85;4.07;;;;;;;;;;5035196;28;20477;-68
2022/05/01 04:20:38;;;;;;;10.65;4.70;;;;;;;;;;5038171;28;20509;-68
2022/05/01 04:23:08;;;;;;;5.82;4.10;;;;;;;;;;5035411;28;20045;-68
2022/05/01 04:25:34;;;;;;;5.88;4.20;;;;;;;;;;5036567;28;20554;-68
2022/05/01 04:28:04;;;;;;;9.82;3.97;;;;;;;;;;5039163;28;20058;-68
2022/05/01 04:30:33;;;;;;;5.55;4.53;;;;;;;;;;5035954;28;20116;-69
2022/05/01 04:33:02;;;;;;;6.95;4.47;;;;;;;;;;5035190;28;20021;-68
2022/05/01 04:35:37;;;;;;;5.07;4.30;;;;;;;;;;5037323;28;20113;-68
2022/05/01 04:38:31;;;;;;;7.20;4.75;;;;;;;;;;5036857;28;20116;-68
2022/05/01 04:41:00;;;;;;;5.00;4.60;;;;;;;;;;5034882;28;20128;-68
2022/05/01 04:43:28;;;;;;;5.90;5.00;;;;;;;;;;5040686;28;20370;-68
2022/05/01 04:45:56;;;;;;;8.95;5.00;;;;;;;;;;5035832;28;20037;-68
2022/05/01 04:48:23;;;;;;;7.50;5.05;;;;;;;;;;5039664;28;20040;-68
2022/05/01 04:50:50;;;;;;;5.63;4.07;;;;;;;;;;5037522;28;20029;-68
2022/05/01 04:53:17;;;;;;;7.63;4.25;;;;;;;;;;5039664;28;20517;-68
2022/05/01 04:55:45;;;;;;;7.88;4.35;;;;;;;;;;5041043;28;20153;-68
2022/05/01 04:58:12;;;;;;;5.80;4.32;;;;;;;;;;5041611;28;20033;-68
2022/05/01 05:00:38;;;;;;;6.60;4.45;;;;;;;;;;5043190;28;20033;-69
2022/05/01 05:03:04;;;;;;;4.53;4.00;;;;;;;;;;5046283;28;20029;-68
2022/05/01 05:05:31;;;;;;;5.43;4.88;;;;;;;;;;5040906;28;20021;-66
2022/05/01 05:10:48;;;;;;;8.98;4.80;;;;;;;;;;5035067;28;20029;-68
2022/05/01 05:13:15;;;;;;;5.13;4.63;;;;;;;;;;5032812;28;20192;-68
2022/05/01 05:15:41;;;;;;;7.57;4.50;;;;;;;;;;5038825;28;20522;-68
2022/05/01 05:18:07;;;;;;;5.82;4.55;;;;;;;;;;5032847;28;20037;-68
2022/05/01 05:20:33;;;;;;;12.60;4.82;;;;;;;;;;5034863;28;20062;-67
2022/05/01 05:22:58;;;;;;;7.65;4.53;;;;;;;;;;5033241;28;20426;-68
2022/05/01 05:25:24;;;;;;;4.97;4.35;;;;;;;;;;5032282;28;20041;-68
2022/05/01 05:27:50;;;;;;;5.60;4.40;;;;;;;;;;5037032;28;20128;-68
2022/05/01 05:30:15;;;;;;;4.45;3.85;;;;;;;;;;5034656;28;20104;-68
2022/05/01 05:32:41;;;;;;;6.03;4.72;;;;;;;;;;5034284;28;20628;-68
2022/05/01 05:35:07;;;;;;;6.60;4.40;;;;;;;;;;5037285;28;20406;-68
2022/05/01 05:37:33;;;;;;;5.57;4.63;;;;;;;;;;5040372;28;20074;-68
2022/05/01 05:39:59;;;;;;;7.43;4.70;;;;;;;;;;5038999;28;20390;-68
2022/05/01 05:42:24;;;;;;;7.93;4.28;;;;;;;;;;5035812;28;20555;-68
2022/05/01 05:44:51;;;;;;;5.75;4.78;;;;;;;;;;5033667;28;20485;-67
2022/05/01 05:47:16;;;;;;;10.75;4.75;;;;;;;;;;5034254;28;20509;-68
2022/05/01 05:49:42;;;;;;;5.57;4.60;;;;;;;;;;5048838;28;20041;-67
2022/05/01 05:52:08;;;;;;;7.18;4.57;;;;;;;;;;5043628;28;20478;-68
2022/05/01 05:54:33;;;;;;;6.60;4.68;;;;;;;;;;5039166;28;20041;-67
2022/05/01 05:57:01;;;;;;;8.18;4.85;;;;;;;;;;5042984;28;20567;-68
2022/05/01 05:59:27;;;;;;;8.38;4.25;;;;;;;;;;5033631;28;20043;-68
2022/05/01 06:01:53;;;;;;;5.25;4.38;;;;;;;;;;5042351;28;20044;-68
2022/05/01 06:04:18;;;;;;;8.35;5.35;;;;;;;;;;5041983;28;20512;-68
2022/05/01 06:06:44;;;;;;;5.70;4.40;;;;;;;;;;5038086;28;20544;-68
2022/05/01 06:09:10;;;;;;;9.98;4.35;;;;;;;;;;5043415;28;20033;-68
2022/05/01 06:11:36;;;;;;;7.25;5.10;;;;;;;;;;5035150;28;20074;-68
2022/05/01 06:14:04;;;;;;;8.57;5.65;;;;;;;;;;5041934;28;20030;-68
2022/05/01 06:16:31;;;;;;;7.10;5.30;;;;;;;;;;5046910;28;20053;-68
2022/05/01 06:18:59;;;;;;;6.25;4.60;;;;;;;;;;5037534;28;20026;-68
2022/05/01 06:21:25;;;;;;;7.53;5.22;;;;;;;;;;5042086;28;20790;-67
2022/05/01 06:23:51;;;;;;;5.68;5.10;;;;;;;;;;5037839;28;20072;-67
2022/05/01 06:26:17;;;;;;;7.30;5.40;;;;;;;;;;5037140;28;20498;-67
2022/05/01 06:28:43;;;;;;;8.80;5.95;;;;;;;;;;5038716;28;20039;-67
2022/05/01 06:31:09;;;;;;;7.07;5.43;;;;;;;;;;5040320;28;20034;-67
2022/05/01 06:33:36;;;;;;;6.10;4.95;;;;;;;;;;5043756;28;20572;-67
2022/05/01 06:36:02;;;;;;;7.18;5.50;;;;;;;;;;5036943;28;20372;-67
2022/05/01 06:38:29;;;;;;;9.38;5.47;;;;;;;;;;5033912;28;20033;-67
2022/05/01 06:40:55;;;;;;;6.97;5.80;;;;;;;;;;5040613;28;20083;-66
2022/05/01 06:43:21;;;;;;;6.13;5.53;;;;;;;;;;5043993;28;20478;-67
2022/05/01 06:45:48;;;;;;;5.60;5.07;;;;;;;;;;5045277;28;20032;-67
2022/05/01 06:48:13;;;;;;;9.10;5.78;;;;;;;;;;5036860;28;20053;-67
2022/05/01 06:50:39;;;;;;;5.60;5.15;;;;;;;;;;5039231;28;20037;-67
2022/05/01 06:53:07;;;;;;;8.55;5.70;;;;;;;;;;5038883;28;20539;-66
2022/05/01 06:55:33;;;;;;;8.05;5.88;;;;;;;;;;5043047;28;20037;-66
2022/05/01 06:57:58;;;;;;;8.93;5.75;;;;;;;;;;5037923;28;20029;-66
2022/05/01 07:00:24;;;;;;;10.68;5.40;;;;;;;;;;5040254;28;20033;-67
2022/05/01 07:02:52;;;;;;;7.03;5.13;;;;;;;;;;5038754;28;20029;-65
2022/05/01 07:05:19;;;;;;;11.23;6.28;;;;;;;;;;5040577;28;20080;-67
2022/05/01 07:07:46;;;;;;;8.85;5.80;;;;;;;;;;5037709;28;20544;-67
2022/05/01 07:10:12;;;;;;;8.95;6.03;;;;;;;;;;5039919;28;20118;-66
2022/05/01 07:12:38;;;;;;;6.50;5.90;;;;;;;;;;5040510;28;20104;-66
2022/05/01 07:15:05;;;;;;;8.65;5.95;;;;;;;;;;5035644;28;20115;-67
2022/05/01 07:17:31;;;;;;;14.63;6.13;;;;;;;;;;5036783;28;20025;-66
2022/05/01 07:19:57;;;;;;;8.93;5.60;;;;;;;;;;5041485;28;20036;-66
2022/05/01 07:22:23;;;;;;;10.75;5.63;;;;;;;;;;5044882;28;20025;-67
2022/05/01 07:24:48;;;;;;;9.65;5.38;;;;;;;;;;5036596;28;20553;-66
2022/05/01 07:27:14;;;;;;;11.00;5.80;;;;;;;;;;5041870;28;20033;-67
2022/05/01 07:29:40;;;;;;;7.88;6.05;;;;;;;;;;5033716;28;20079;-68
2022/05/01 07:32:06;;;;;;;11.80;6.25;;;;;;;;;;5034867;28;20029;-67
2022/05/01 07:34:32;;;;;;;6.90;6.20;;;;;;;;;;5041421;28;20036;-67
2022/05/01 07:36:58;;;;;;;6.70;5.60;;;;;;;;;;5039834;28;20030;-66
2022/05/01 07:39:23;;;;;;;7.18;5.97;;;;;;;;;;5037475;28;20029;-66
2022/05/01 07:41:49;;;;;;;10.20;5.97;;;;;;;;;;5033797;28;20837;-66
2022/05/01 07:44:15;;;;;;;7.93;5.70;;;;;;;;;;5034506;28;20025;-66
2022/05/01 07:46:41;;;;;;;6.63;5.35;;;;;;;;;;5038285;28;20025;-66
2022/05/01 07:49:10;;;;;;;9.25;5.60;;;;;;;;;;5037826;28;20038;-66
2022/05/01 07:51:37;;;;;;;6.75;5.28;;;;;;;;;;5038621;28;20120;-66
2022/05/01 07:54:04;;;;;;;7.35;5.32;;;;;;;;;;5036067;28;20134;-66
2022/05/01 07:56:31;;;;;;;5.72;4.95;;;;;;;;;;5040603;28;20032;-66
2022/05/01 07:58:57;;;;;;;5.97;5.15;;;;;;;;;;5038355;28;20044;-66
2022/05/01 08:01:23;;;;;;;10.52;5.60;;;;;;;;;;5042988;28;20036;-66
2022/05/01 08:06:35;;;;;;;6.75;5.03;;;;;;;;;;5035046;28;20421;-66
2022/05/01 08:09:01;;;;;;;8.13;5.03;;;;;;;;;;5038711;28;20028;-66
2022/05/01 08:11:27;;;;;;;8.13;4.78;;;;;;;;;;5040324;28;20143;-66
2022/05/01 08:13:52;;;;;;;5.95;4.88;;;;;;;;;;5040253;28;20513;-66
2022/05/01 08:16:18;;;;;;;5.13;4.63;;;;;;;;;;5038094;28;20029;-67
2022/05/01 08:21:31;;;;;;;6.28;4.70;;;;;;;;;;5038959;28;20398;-66
2022/05/01 08:23:57;;;;;;;5.18;4.53;;;;;;;;;;5036034;28;20542;-66
2022/05/01 08:26:23;;;;;;;7.25;4.32;;;;;;;;;;5037051;28;20087;-66
2022/05/01 08:28:52;;;;;;;7.80;4.50;;;;;;;;;;5039406;28;20385;-66
2022/05/01 08:31:18;;;;;;;6.20;4.68;;;;;;;;;;5039140;28;20134;-66
2022/05/01 08:33:44;;;;;;;7.35;4.47;;;;;;;;;;5039025;28;20033;-66
2022/05/01 08:36:10;;;;;;;5.97;4.47;;;;;;;;;;5033807;28;20183;-66
2022/05/01 08:38:37;;;;;;;9.10;4.65;;;;;;;;;;5037976;28;20057;-66
2022/05/01 08:41:04;;;;;;;4.53;4.07;;;;;;;;;;5042818;28;20482;-66
2022/05/01 08:43:30;;;;;;;6.22;4.60;;;;;;;;;;5041298;28;20040;-66
2022/05/01 08:46:07;;;;;;;6.47;4.53;;;;;;;;;;5039461;28;20680;-65
2022/05/01 08:48:55;;;;;;;5.70;4.00;;;;;;;;;;5031560;28;20505;-65
2022/05/01 08:51:21;;;;;;;7.72;4.10;;;;;;;;;;5041225;28;20036;-65
2022/05/01 08:53:48;;;;;;;6.03;3.90;;;;;;;;;;5038167;28;20112;-65
2022/05/01 08:56:14;;;;;;;4.82;4.15;;;;;;;;;;5036033;28;20032;-65
2022/05/01 08:58:41;;;;;;;8.75;3.85;;;;;;;;;;5040287;28;20037;-65
2022/05/01 09:01:11;;;;;;;6.15;3.85;;;;;;;;;;5037879;28;20553;-65
2022/05/01 09:03:39;;;;;;;5.88;3.78;;;;;;;;;;5039714;28;20024;-65
2022/05/01 09:06:05;;;;;;;7.72;3.90;;;;;;;;;;5038713;28;20029;-65
2022/05/01 09:08:31;;;;;;;4.82;3.90;;;;;;;;;;5038352;28;20037;-65
2022/05/01 09:12:49;;;;;;;7.13;4.47;;;;;;;;;;5036815;28;20409;-65
2022/05/01 09:13:44;;;;;;;4.97;3.92;;;;;;;;;;5042885;28;20026;-64
2022/05/01 09:16:11;;;;;;;10.30;3.72;;;;;;;;;;5040708;28;20025;-64
2022/05/01 09:18:45;;;;;;;4.30;3.90;;;;;;;;;;5039136;28;20059;-64
2022/05/01 09:21:11;;;;;;;7.13;3.97;;;;;;;;;;5043369;28;20061;-65
2022/05/01 09:23:41;;;;;;;7.82;3.55;;;;;;;;;;5038586;28;20110;-64
2022/05/01 09:26:09;;;;;;;5.90;3.58;;;;;;;;;;5037458;28;20073;-64
2022/05/01 09:28:37;;;;;;;4.53;3.53;;;;;;;;;;5036922;28;20029;-64
2022/05/01 09:31:03;;;;;;;4.25;3.63;;;;;;;;;;5037849;28;20474;-65
2022/05/01 09:33:29;;;;;;;5.80;3.40;;;;;;;;;;5039281;28;20071;-64
2022/05/01 09:35:55;;;;;;;4.60;3.13;;;;;;;;;;5039399;28;20032;-65
2022/05/01 09:38:27;;;;;;;4.20;3.60;;;;;;;;;;5043918;28;20455;-65
2022/05/01 09:40:58;;;;;;;4.28;3.85;;;;;;;;;;5039564;28;20029;-64
2022/05/01 09:43:46;;;;;;;6.88;3.80;;;;;;;;;;5041192;28;20025;-64
2022/05/01 09:46:22;;;;;;;6.60;3.50;;;;;;;;;;5043668;28;20044;-64
2022/05/01 09:49:03;;;;;;;5.40;3.47;;;;;;;;;;5040840;28;20669;-64
2022/05/01 09:51:31;;;;;;;3.30;3.03;;;;;;;;;;5039416;28;20045;-64
2022/05/01 09:54:00;;;;;;;3.92;2.97;;;;;;;;;;5040117;28;20049;-64
2022/05/01 09:56:26;;;;;;;6.03;3.40;;;;;;;;;;5038944;28;20037;-64
2022/05/01 09:58:59;;;;;;;3.97;3.42;;;;;;;;;;5038765;28;20029;-64
2022/05/01 10:01:26;;;;;;;4.65;3.33;;;;;;;;;;5040455;28;20064;-64
2022/05/01 10:03:52;;;;;;;5.65;3.45;;;;;;;;;;5040735;28;20107;-64
2022/05/01 10:06:19;;;;;;;5.45;3.53;;;;;;;;;;5035778;28;20048;-64
2022/05/01 10:08:46;;;;;;;3.95;3.42;;;;;;;;;;5041162;28;20026;-64
2022/05/01 10:11:14;;;;;;;5.75;3.35;;;;;;;;;;5039477;28;20498;-64
2022/05/01 10:13:43;;;;;;;8.35;4.40;;;;;;;;;;5043928;28;20139;-66
2022/05/01 10:16:11;;;;;;;8.98;3.75;;;;;;;;;;5037542;28;20033;-64
2022/05/01 10:18:38;;;;;;;5.13;3.20;;;;;;;;;;5041057;28;20029;-65
2022/05/01 10:21:06;;;;;;;5.65;3.45;;;;;;;;;;5041084;28;20109;-63
2022/05/01 10:23:32;;;;;;;7.00;3.65;;;;;;;;;;5036878;28;20501;-62
2022/05/01 10:26:20;;;;;;;4.38;3.22;;;;;;;;;;5042946;28;20120;-63
2022/05/01 10:29:10;;;;;;;4.05;3.65;;;;;;;;;;5039019;28;20083;-63
2022/05/01 10:35:13;;;;;;;5.30;3.10;;;;;;;;;;5039804;28;20044;-64
2022/05/01 10:37:57;;;;;;;7.20;3.20;;;;;;;;;;5039340;28;20029;-63
2022/05/01 10:40:24;;;;;;;5.20;3.47;;;;;;;;;;5040999;28;20032;-63
2022/05/01 10:42:50;;;;;;;4.55;3.15;;;;;;;;;;5038683;28;20386;-64
2022/05/01 10:45:21;;;;;;;7.50;3.15;;;;;;;;;;5038651;28;20026;-63
2022/05/01 10:47:54;;;;;;;3.45;3.15;;;;;;;;;;5039176;28;20111;-63
2022/05/01 10:50:22;;;;;;;6.32;4.07;;;;;;;;;;5040421;28;20509;-64
2022/05/01 10:53:16;;;;;;;6.70;4.03;;;;;;;;;;5037623;28;20025;-63
2022/05/01 10:55:52;;;;;;;3.83;3.45;;;;;;;;;;5043870;28;20539;-63
2022/05/01 10:58:27;;;;;;;3.33;3.03;;;;;;;;;;5042098;28;20048;-64
2022/05/01 11:00:55;;;;;;;8.52;3.92;;;;;;;;;;5035269;28;20045;-63
2022/05/01 11:03:26;;;;;;;4.00;3.38;;;;;;;;;;5045238;28;20053;-64
2022/05/01 11:06:06;;;;;;;3.72;3.40;;;;;;;;;;5047446;28;20060;-63
2022/05/01 11:08:34;;;;;;;2.80;2.60;;;;;;;;;;5037351;28;20107;-64
2022/05/01 11:11:01;;;;;;;2.65;2.45;;;;;;;;;;5034668;28;20052;-63
2022/05/01 11:13:32;;;;;;;3.03;2.72;;;;;;;;;;5042767;28;20033;-63
2022/05/01 11:15:58;;;;;;;5.25;3.25;;;;;;;;;;5039015;28;20044;-64
2022/05/01 11:18:35;;;;;;;12.07;10.15;;;;;;;;;;5042974;28;20410;-63
2022/05/01 11:21:19;;;;;;;4.07;3.40;;;;;;;;;;5043142;28;20028;-63
2022/05/01 11:23:45;;;;;;;6.53;2.80;;;;;;;;;;5038434;28;20025;-63
2022/05/01 11:26:17;;;;;;;3.28;2.97;;;;;;;;;;5042832;28;20033;-62
2022/05/01 11:28:48;;;;;;;3.92;2.85;;;;;;;;;;5041541;28;20107;-64
2022/05/01 11:31:35;;;;;;;4.40;3.38;;;;;;;;;;5043214;28;20029;-63
2022/05/01 11:34:16;;;;;;;6.50;3.00;;;;;;;;;;5041749;28;20474;-64
2022/05/01 11:37:01;;;;;;;9.00;2.88;;;;;;;;;;5041368;28;20056;-64
2022/05/01 11:39:45;;;;;;;4.15;3.00;;;;;;;;;;5036762;28;20039;-64
2022/05/01 11:42:29;;;;;;;4.05;2.60;;;;;;;;;;5041087;28;20189;-62
2022/05/01 11:44:57;;;;;;;14.32;3.22;;;;;;;;;;5041410;28;20041;-63
2022/05/01 11:47:25;;;;;;;4.25;3.10;;;;;;;;;;5037937;28;20045;-64
2022/05/01 11:49:51;;;;;;;5.75;3.10;;;;;;;;;;5041848;28;20039;-64
2022/05/01 11:52:18;;;;;;;4.15;2.85;;;;;;;;;;5040901;28;20047;-64
2022/05/01 11:54:55;;;;;;;3.47;2.30;;;;;;;;;;5034635;28;20529;-64
2022/05/01 12:03:01;;;;;;;3.13;2.42;;;;;;;;;;5039291;28;20036;-63
2022/05/01 12:05:47;;;;;;;2.80;2.55;;;;;;;;;;5041761;28;20052;-64
2022/05/01 12:08:14;;;;;;;4.53;2.40;;;;;;;;;;5040609;28;20040;-64
2022/05/01 12:10:44;;;;;;;3.50;2.75;;;;;;;;;;5041516;28;20025;-64
2022/05/01 12:13:23;;;;;;;2.95;2.70;;;;;;;;;;5039051;28;20086;-64
2022/05/01 12:15:51;;;;;;;3.42;2.67;;;;;;;;;;5041351;28;20027;-64
2022/05/01 12:18:18;;;;;;;3.60;2.45;;;;;;;;;;5037794;28;20525;-63
2022/05/01 12:20:44;;;;;;;6.90;2.75;;;;;;;;;;5034934;28;20033;-64
2022/05/01 12:23:18;;;;;;;5.88;2.50;;;;;;;;;;5037924;28;20025;-63
2022/05/01 12:25:47;;;;;;;7.32;3.67;;;;;;;;;;5041897;28;20478;-63
2022/05/01 12:28:15;;;;;;;3.90;2.50;;;;;;;;;;5037138;28;20072;-63
2022/05/01 12:30:42;;;;;;;4.15;2.95;;;;;;;;;;5038553;28;20029;-64
2022/05/01 12:33:17;;;;;;;4.00;2.80;;;;;;;;;;5041348;28;20116;-64
2022/05/01 12:35:52;;;;;;;3.42;2.80;;;;;;;;;;5034253;28;20029;-64
2022/05/01 12:38:19;;;;;;;2.65;2.45;;;;;;;;;;5036778;28;20474;-64
2022/05/01 12:46:33;;;;;;;3.45;2.63;;;;;;;;;;5037025;28;20036;-64
2022/05/01 12:48:59;;;;;;;3.63;2.58;;;;;;;;;;5037298;28;20040;-64
2022/05/01 12:51:36;;;;;;;4.22;3.10;;;;;;;;;;5042454;28;20029;-64
2022/05/01 12:54:17;;;;;;;3.38;2.60;;;;;;;;;;5034922;28;20132;-64
2022/05/01 12:56:45;;;;;;;3.08;2.78;;;;;;;;;;5036885;28;20043;-64
2022/05/01 12:59:54;;;;;;;8.55;2.72;;;;;;;;;;5038802;28;20040;-64
2022/05/01 13:02:20;;;;;;;3.85;2.50;;;;;;;;;;4994459;28;20120;-64
2022/05/01 13:04:59;;;;;;;4.35;2.50;;;;;;;;;;4990938;28;20476;-64
2022/05/01 13:07:34;;;;;;;3.53;2.30;;;;;;;;;;4995897;28;20061;-64
2022/05/01 13:10:02;;;;;;;6.50;2.50;;;;;;;;;;4994302;28;20727;-64
2022/05/01 13:12:34;;;;;;;2.95;2.50;;;;;;;;;;4993641;28;20497;-64
2022/05/01 13:15:04;;;;;;;;;;;;;;;;;;4996091;28;20026;-64
2022/05/01 13:17:31;;;;;;;2.38;2.10;;;;;;;;;;4992836;28;20366;-64
2022/05/01 13:19:58;;;;;;;4.40;2.42;;;;;;;;;;4998880;28;20085;-65
2022/05/01 13:22:24;;;;;;;4.53;2.53;;;;;;;;;;5003450;28;20042;-64
2022/05/01 13:24:52;;;;;;;2.88;2.15;;;;;;;;;;5003233;28;20042;-64
2022/05/01 13:27:19;;;;;;;4.38;2.40;;;;;;;;;;4999097;28;20070;-64
2022/05/01 13:29:45;;;;;;;3.38;2.67;;;;;;;;;;4991674;28;20030;-64
2022/05/01 13:32:11;;;;;;;4.82;2.60;;;;;;;;;;4995239;28;20097;-63
2022/05/01 13:34:44;;;;;;;3.78;2.10;;;;;;;;;;4998008;28;20033;-65
2022/05/01 13:37:11;;;;;;;3.97;2.20;;;;;;;;;;5002984;28;20060;-64
2022/05/01 13:45:07;;;;;;;5.75;2.30;;;;;;;;;;5040519;28;20036;-64
2022/05/01 13:47:36;;;;;;;2.38;2.17;;;;;;;;;;5037997;28;20041;-64
2022/05/01 13:50:03;;;;;;;4.28;2.15;;;;;;;;;;5040058;28;20036;-64
2022/05/01 13:52:29;;;;;;;5.22;2.30;;;;;;;;;;5039151;28;20040;-64
2022/05/01 13:54:55;;;;;;;2.78;2.20;;;;;;;;;;5042269;28;20053;-65
2022/05/01 13:57:21;;;;;;;3.17;2.30;;;;;;;;;;5042899;28;20090;-64
2022/05/01 13:59:47;;;;;;;5.93;2.80;;;;;;;;;;5036773;28;20068;-65
2022/05/01 14:02:14;;;;;;;3.85;2.53;;;;;;;;;;5041200;28;20421;-66
2022/05/01 14:04:40;;;;;;;3.00;2.25;;;;;;;;;;5043189;28;20029;-65
2022/05/01 14:07:06;;;;;;;3.92;2.17;;;;;;;;;;5044836;28;20033;-65
2022/05/01 14:09:32;;;;;;;3.90;2.08;;;;;;;;;;5044877;28;20033;-62
2022/05/01 14:11:58;;;;;;;2.47;2.03;;;;;;;;;;5043505;28;20024;-64
2022/05/01 14:14:24;;;;;;;5.03;2.33;;;;;;;;;;5044202;28;20040;-64
2022/05/01 14:16:51;;;;;;;3.10;2.30;;;;;;;;;;5042856;28;20068;-65
2022/05/01 14:19:20;;;;;;;8.32;2.47;;;;;;;;;;5037495;28;20057;-64
2022/05/01 14:21:47;;;;;;;2.25;2.05;;;;;;;;;;5035995;28;20048;-65
2022/05/01 14:24:14;;;;;;;5.40;2.30;;;;;;;;;;5037255;28;20091;-64
2022/05/01 14:26:39;;;;;;;3.35;2.38;;;;;;;;;;5040844;28;20654;-64
2022/05/01 14:29:05;;;;;;;2.90;2.40;;;;;;;;;;5045042;28;20036;-64
2022/05/01 14:31:55;;;;;;;7.68;2.38;;;;;;;;;;5040824;28;20033;-63
2022/05/01 14:34:45;;;;;;;2.97;2.58;;;;;;;;;;5042961;28;20036;-65
2022/05/01 14:37:30;;;;;;;4.13;2.53;;;;;;;;;;5042627;28;20047;-65
2022/05/01 14:40:00;;;;;;;7.50;2.72;;;;;;;;;;5034734;28;20087;-65
2022/05/01 14:42:31;;;;;;;4.70;2.58;;;;;;;;;;5040246;28;20715;-65
2022/05/01 14:45:05;;;;;;;5.20;2.27;;;;;;;;;;5042513;28;20029;-65
2022/05/01 14:47:41;;;;;;;2.65;2.17;;;;;;;;;;5040159;28;20036;-65
2022/05/01 14:50:10;;;;;;;5.25;2.38;;;;;;;;;;5038259;28;20434;-65
2022/05/01 14:52:36;;;;;;;4.82;2.40;;;;;;;;;;5042372;28;20025;-65
2022/05/01 14:55:07;;;;;;;5.32;2.40;;;;;;;;;;5039532;28;20049;-65
2022/05/01 14:57:34;;;;;;;4.25;2.17;;;;;;;;;;5040880;28;20029;-64
2022/05/01 15:08:27;;;;;;;3.00;2.15;;;;;;;;;;5040861;28;20028;-65
2022/05/01 15:10:54;;;;;;;4.85;2.47;;;;;;;;;;5040826;28;20056;-65
2022/05/01 15:13:20;;;;;;;3.42;2.40;;;;;;;;;;5040609;28;20037;-67
2022/05/01 15:16:03;;;;;;;2.53;2.33;;;;;;;;;;5040432;28;20024;-66
2022/05/01 15:19:01;;;;;;;5.43;2.58;;;;;;;;;;5043448;28;20031;-66
2022/05/01 15:22:20;;;;;;;3.30;2.13;;;;;;;;;;5045112;28;20033;-66
2022/05/01 15:24:21;;;;;;;6.13;2.45;;;;;;;;;;5039586;28;20035;-66
2022/05/01 15:26:53;;;;;;;3.53;2.30;;;;;;;;;;5035158;28;20398;-66
2022/05/01 15:29:34;;;;;;;2.80;2.45;;;;;;;;;;5041608;28;20069;-66
2022/05/01 15:32:06;;;;;;;3.45;2.47;;;;;;;;;;5040264;28;20404;-66
2022/05/01 15:34:33;;;;;;;5.45;2.60;;;;;;;;;;5037820;28;20048;-66
2022/05/01 15:37:03;;;;;;;5.70;2.95;;;;;;;;;;5037639;28;20047;-67
2022/05/01 15:39:38;;;;;;;4.00;2.40;;;;;;;;;;5039815;28;20569;-66
2022/05/01 15:42:15;;;;;;;5.45;2.40;;;;;;;;;;5034643;28;20117;-67
2022/05/01 15:44:47;;;;;;;2.92;2.33;;;;;;;;;;5040996;28;20032;-66